createdAt,value
2022-09-23T00:01:04.218Z,8.85
2022-09-23T00:03:31.842Z,9.13
2022-09-23T00:06:02.814Z,6.88
2022-09-23T00:08:29.762Z,6.85
2022-09-23T00:10:56.521Z,11.40
2022-09-23T00:13:26.024Z,8.73
2022-09-23T00:15:52.946Z,7.57
2022-09-23T00:18:20.806Z,11.82
2022-09-23T00:20:47.816Z,7.55
2022-09-23T00:23:14.845Z,4.32
2022-09-23T00:25:41.629Z,5.85
2022-09-23T00:28:08.405Z,7.22
2022-09-23T00:31:16.442Z,11.23
2022-09-23T00:33:43.349Z,8.52
2022-09-23T00:36:11.758Z,9.48
2022-09-23T00:38:38.795Z,7.47
2022-09-23T00:41:06.349Z,5.95
2022-09-23T00:43:46.851Z,7.82
2022-09-23T00:46:28.033Z,6.70
2022-09-23T00:49:21.135Z,6.35
2022-09-23T00:51:50.951Z,7.57
2022-09-23T00:54:18.140Z,8.07
2022-09-23T00:56:44.865Z,6.90
2022-09-23T00:59:11.655Z,9.68
2022-09-23T01:01:38.604Z,7.85
2022-09-23T01:04:06.398Z,9.57
2022-09-23T01:06:33.105Z,7.15
2022-09-23T01:08:59.881Z,8.18
2022-09-23T01:11:50.796Z,7.57
2022-09-23T01:14:42.419Z,8.32
2022-09-23T01:17:47.553Z,7.13
2022-09-23T01:20:39.267Z,8.38
2022-09-23T01:23:26.208Z,7.97
2022-09-23T01:26:28.972Z,12.02
2022-09-23T01:29:29.910Z,10.07
2022-09-23T01:32:15.038Z,8.68
2022-09-23T01:34:52.021Z,7.82
2022-09-23T01:37:30.961Z,7.35
2022-09-23T01:40:05.518Z,10.50
2022-09-23T01:42:39.633Z,7.82
2022-09-23T01:45:11.001Z,12.75
2022-09-23T01:47:44.923Z,9.30
2022-09-23T01:50:35.342Z,8.18
2022-09-23T01:53:04.808Z,7.57
2022-09-23T01:55:33.827Z,10.38
2022-09-23T01:58:15.999Z,8.40
2022-09-23T02:00:49.712Z,7.45
2022-09-23T02:05:52.895Z,6.80
2022-09-23T02:08:22.028Z,15.25
2022-09-23T02:11:08.951Z,13.90
2022-09-23T02:14:14.764Z,8.25
2022-09-23T02:16:49.052Z,9.35
2022-09-23T02:19:29.858Z,7.05
2022-09-23T02:22:09.716Z,10.60
2022-09-23T02:24:37.866Z,11.50
2022-09-23T02:27:41.408Z,7.25
2022-09-23T02:30:10.333Z,9.85
2022-09-23T02:32:55.631Z,5.40
2022-09-23T02:35:33.077Z,6.63
2022-09-23T02:38:05.634Z,6.82
2022-09-23T02:40:38.879Z,8.45
2022-09-23T02:43:08.748Z,7.72
2022-09-23T02:45:38.974Z,6.45
2022-09-23T02:48:36.250Z,7.50
2022-09-23T02:51:03.736Z,11.68
2022-09-23T02:53:33.814Z,11.43
2022-09-23T02:56:01.561Z,9.02
2022-09-23T02:58:28.320Z,10.43
2022-09-23T03:01:07.261Z,10.05
2022-09-23T03:03:53.791Z,7.18
2022-09-23T03:06:37.495Z,8.85
2022-09-23T03:09:10.738Z,8.25
2022-09-23T03:11:38.625Z,5.88
2022-09-23T03:14:17.823Z,9.70
2022-09-23T03:17:06.220Z,9.55
2022-09-23T03:19:42.886Z,10.13
2022-09-23T03:22:25.104Z,7.97
2022-09-23T03:24:54.015Z,6.38
2022-09-23T03:27:23.411Z,7.85
2022-09-23T03:29:50.961Z,11.90
2022-09-23T03:32:19.603Z,6.47
2022-09-23T03:34:48.393Z,15.68
2022-09-23T03:37:33.805Z,10.45
2022-09-23T03:40:24.314Z,9.63
2022-09-23T03:42:51.230Z,8.38
2022-09-23T03:45:20.439Z,13.48
2022-09-23T03:47:47.785Z,9.07
2022-09-23T03:50:14.761Z,8.73
2022-09-23T03:52:41.521Z,8.02
2022-09-23T03:55:08.672Z,6.72
2022-09-23T03:57:35.900Z,7.90
2022-09-23T04:00:04.019Z,7.22
2022-09-23T04:02:32.225Z,9.32
2022-09-23T04:04:58.981Z,5.95
2022-09-23T04:07:25.703Z,10.77
2022-09-23T04:09:53.498Z,8.25
2022-09-23T04:12:20.241Z,9.90
2022-09-23T04:14:46.927Z,11.65
2022-09-23T04:17:13.760Z,7.18
2022-09-23T04:19:40.686Z,9.23
2022-09-23T04:22:07.661Z,8.13
2022-09-23T04:24:34.422Z,8.43
2022-09-23T04:27:01.104Z,6.30
2022-09-23T04:29:27.900Z,7.68
2022-09-23T04:31:54.777Z,8.40
2022-09-23T04:34:21.607Z,5.80
2022-09-23T04:36:48.764Z,6.88
2022-09-23T04:39:15.786Z,11.73
2022-09-23T04:41:43.472Z,6.47
2022-09-23T04:44:11.833Z,7.05
2022-09-23T04:46:39.331Z,11.27
2022-09-23T04:49:06.948Z,9.85
2022-09-23T04:51:33.796Z,8.40
2022-09-23T04:54:00.517Z,6.68
2022-09-23T04:56:28.732Z,8.93
2022-09-23T04:58:58.259Z,7.07
2022-09-23T05:01:27.141Z,5.43
2022-09-23T05:03:56.204Z,9.38
2022-09-23T05:06:22.955Z,6.40
2022-09-23T05:08:54.477Z,7.47
2022-09-23T05:11:21.504Z,7.05
2022-09-23T05:13:48.677Z,7.20
2022-09-23T05:16:15.762Z,10.13
2022-09-23T05:18:43.886Z,10.02
2022-09-23T05:21:11.645Z,9.50
2022-09-23T05:23:38.870Z,7.93
2022-09-23T05:26:07.297Z,9.18
2022-09-23T05:28:34.215Z,6.28
2022-09-23T05:31:08.278Z,9.30
2022-09-23T05:33:35.883Z,10.90
2022-09-23T05:36:03.213Z,9.55
2022-09-23T05:38:30.422Z,7.82
2022-09-23T05:41:04.707Z,11.13
2022-09-23T05:43:31.563Z,10.90
2022-09-23T05:46:11.769Z,8.82
2022-09-23T05:48:38.916Z,7.70
2022-09-23T05:51:11.137Z,7.00
2022-09-23T05:53:38.107Z,8.38
2022-09-23T05:56:05.750Z,9.55
2022-09-23T05:58:32.677Z,11.18
2022-09-23T06:00:59.389Z,9.90
2022-09-23T06:03:26.369Z,14.10
2022-09-23T06:05:53.970Z,10.18
2022-09-23T06:08:20.978Z,10.02
2022-09-23T06:10:53.605Z,12.13
2022-09-23T06:13:22.714Z,8.57
2022-09-23T06:15:50.068Z,11.60
2022-09-23T06:18:17.276Z,11.18
2022-09-23T06:20:44.365Z,9.68
2022-09-23T06:23:11.372Z,11.27
2022-09-23T06:25:42.285Z,11.20
2022-09-23T06:28:10.792Z,8.98
2022-09-23T06:30:37.613Z,10.40
2022-09-23T06:33:04.385Z,8.80
2022-09-23T06:35:33.205Z,13.13
2022-09-23T06:38:03.099Z,15.50
2022-09-23T06:40:29.981Z,12.15
2022-09-23T06:43:03.430Z,11.10
2022-09-23T06:45:30.561Z,13.25
2022-09-23T06:47:57.942Z,9.98
2022-09-23T06:50:25.829Z,12.80
2022-09-23T06:52:57.886Z,11.88
2022-09-23T06:55:25.297Z,19.70
2022-09-23T06:57:52.052Z,13.68
2022-09-23T07:00:19.510Z,17.20
2022-09-23T07:02:46.550Z,12.27
2022-09-23T07:05:13.607Z,10.27
2022-09-23T07:07:41.429Z,12.15
2022-09-23T07:10:08.524Z,14.48
2022-09-23T07:12:35.260Z,17.50
2022-09-23T07:15:02.097Z,14.25
2022-09-23T07:17:29.062Z,12.75
2022-09-23T07:19:55.989Z,17.00
2022-09-23T07:22:24.897Z,16.10
2022-09-23T07:24:52.360Z,14.25
2022-09-23T07:27:19.982Z,15.90
2022-09-23T07:29:50.348Z,14.02
2022-09-23T07:32:17.344Z,12.35
2022-09-23T07:34:44.557Z,11.05
2022-09-23T07:37:11.370Z,12.10
2022-09-23T07:39:39.847Z,11.38
2022-09-23T07:42:06.685Z,14.00
2022-09-23T07:44:33.515Z,11.57
2022-09-23T07:47:00.459Z,13.75
2022-09-23T07:49:27.678Z,10.68
2022-09-23T07:51:54.564Z,18.58
2022-09-23T07:54:21.503Z,8.80
2022-09-23T07:56:48.611Z,10.05
2022-09-23T07:59:18.202Z,11.18
2022-09-23T08:01:48.050Z,10.52
2022-09-23T08:04:26.651Z,11.23
2022-09-23T08:07:00.102Z,9.57
2022-09-23T08:09:34.609Z,12.60
2022-09-23T08:12:01.659Z,11.00
2022-09-23T08:14:28.525Z,12.13
2022-09-23T08:16:55.317Z,10.77
2022-09-23T08:19:22.195Z,10.75
2022-09-23T08:21:49.867Z,8.82
2022-09-23T08:24:20.987Z,9.38
2022-09-23T08:26:48.428Z,11.35
2022-09-23T08:29:16.741Z,10.25
2022-09-23T08:31:43.569Z,12.00
2022-09-23T08:34:10.546Z,12.88
2022-09-23T08:36:37.704Z,12.48
2022-09-23T08:39:04.753Z,13.25
2022-09-23T08:41:43.581Z,11.88
2022-09-23T08:44:25.186Z,10.90
2022-09-23T08:47:00.433Z,11.73
2022-09-23T08:49:31.501Z,9.23
2022-09-23T08:51:58.505Z,10.88
2022-09-23T08:54:25.306Z,17.00
2022-09-23T08:56:52.413Z,9.77
2022-09-23T08:59:29.398Z,7.68
2022-09-23T09:02:06.810Z,13.38
2022-09-23T09:04:40.587Z,10.13
2022-09-23T09:10:14.206Z,9.57
2022-09-23T09:12:52.587Z,8.27
2022-09-23T09:15:24.309Z,10.77
2022-09-23T09:17:55.456Z,8.35
2022-09-23T09:20:41.532Z,9.40
2022-09-23T09:23:15.005Z,15.18
2022-09-23T09:25:45.370Z,9.27
2022-09-23T09:28:30.797Z,10.65
2022-09-23T09:31:01.052Z,9.68
2022-09-23T09:33:32.318Z,10.45
2022-09-23T09:36:10.400Z,13.48
2022-09-23T09:38:37.272Z,10.18
2022-09-23T09:41:17.952Z,12.70
2022-09-23T09:43:49.399Z,17.50
2022-09-23T09:46:52.064Z,17.25
2022-09-23T09:49:26.120Z,17.35
2022-09-23T09:52:19.603Z,21.77
2022-09-23T09:54:46.397Z,23.17
2022-09-23T09:57:33.708Z,21.75
2022-09-23T10:00:25.771Z,24.45
2022-09-23T10:02:56.359Z,22.40
2022-09-23T10:05:28.413Z,21.85
2022-09-23T10:07:55.233Z,18.27
2022-09-23T10:10:33.150Z,25.25
2022-09-23T10:13:03.930Z,21.35
2022-09-23T10:15:34.615Z,18.42
2022-09-23T10:18:02.079Z,21.17
2022-09-23T10:20:35.523Z,25.70
2022-09-23T10:23:09.971Z,19.27
2022-09-23T10:25:36.915Z,18.80
2022-09-23T10:28:41.253Z,16.35
2022-09-23T10:31:16.539Z,19.52
2022-09-23T10:33:48.871Z,22.40
2022-09-23T10:36:16.825Z,20.00
2022-09-23T10:38:43.765Z,15.77
2022-09-23T10:41:50.877Z,17.65
2022-09-23T10:44:52.477Z,17.23
2022-09-23T10:47:28.186Z,17.50
2022-09-23T10:50:14.924Z,17.73
2022-09-23T10:53:05.017Z,19.15
2022-09-23T10:55:52.828Z,17.10
2022-09-23T10:58:34.569Z,18.65
2022-09-23T11:01:29.623Z,19.05
2022-09-23T11:04:13.280Z,13.38
2022-09-23T11:06:50.095Z,14.55
2022-09-23T11:09:27.127Z,16.35
2022-09-23T11:12:08.300Z,14.77
2022-09-23T11:14:56.955Z,16.60
2022-09-23T11:17:48.118Z,15.95
2022-09-23T11:20:44.164Z,16.90
2022-09-23T11:23:29.687Z,17.60
2022-09-23T11:25:59.210Z,13.68
2022-09-23T11:28:50.968Z,18.48
2022-09-23T11:31:33.122Z,13.02
2022-09-23T11:34:02.813Z,14.00
2022-09-23T11:37:06.048Z,11.40
2022-09-23T11:39:38.172Z,10.25
2022-09-23T11:42:09.274Z,10.73
2022-09-23T11:44:42.877Z,9.98
2022-09-23T11:47:14.161Z,11.73
2022-09-23T11:50:02.142Z,8.93
2022-09-23T11:52:35.637Z,8.93
2022-09-23T11:55:23.477Z,8.98
2022-09-23T11:57:57.297Z,8.18
2022-09-23T12:00:26.604Z,8.30
2022-09-23T12:03:09.367Z,7.38
2022-09-23T12:05:42.033Z,9.20
2022-09-23T12:08:18.064Z,7.25
2022-09-23T12:11:13.025Z,7.35
2022-09-23T12:13:57.950Z,7.85
2022-09-23T12:16:33.589Z,8.00
2022-09-23T12:19:28.063Z,10.50
2022-09-23T12:22:33.178Z,8.10
2022-09-23T12:25:06.329Z,7.72
2022-09-23T12:27:36.192Z,5.80
2022-09-23T12:30:12.943Z,8.70
2022-09-23T12:32:39.713Z,9.00
2022-09-23T12:35:07.860Z,13.18
2022-09-23T12:37:38.416Z,10.95
2022-09-23T12:40:19.351Z,5.82
2022-09-23T12:42:46.388Z,6.03
2022-09-23T12:45:17.245Z,5.38
2022-09-23T12:47:44.158Z,5.22
2022-09-23T12:50:48.935Z,4.80
2022-09-23T12:53:33.877Z,6.72
2022-09-23T12:56:47.359Z,6.70
2022-09-23T12:59:30.060Z,7.60
2022-09-23T13:01:57.007Z,7.22
2022-09-23T13:05:12.896Z,11.35
2022-09-23T13:07:43.144Z,9.10
2022-09-23T13:10:53.317Z,4.85
2022-09-23T13:13:28.213Z,5.93
2022-09-23T13:15:56.455Z,5.70
2022-09-23T13:18:23.950Z,5.97
2022-09-23T13:20:51.574Z,4.22
2022-09-23T13:23:31.398Z,5.80
2022-09-23T13:26:03.000Z,4.07
2022-09-23T13:28:41.943Z,4.40
2022-09-23T13:31:17.860Z,7.35
2022-09-23T13:33:50.650Z,4.00
2022-09-23T13:36:18.734Z,4.10
2022-09-23T13:38:46.973Z,2.40
2022-09-23T13:41:24.432Z,2.55
2022-09-23T13:43:53.591Z,2.13
2022-09-23T13:46:24.595Z,3.85
2022-09-23T13:48:54.703Z,3.95
2022-09-23T13:51:49.553Z,7.95
2022-09-23T13:54:30.110Z,2.17
2022-09-23T13:56:56.862Z,8.38
2022-09-23T13:59:28.409Z,15.65
2022-09-23T14:02:04.539Z,6.55
2022-09-23T14:04:31.322Z,4.70
2022-09-23T14:06:58.186Z,5.20
2022-09-23T14:09:27.437Z,3.50
2022-09-23T14:11:55.021Z,4.07
2022-09-23T14:14:23.200Z,7.05
2022-09-23T14:16:50.666Z,5.40
2022-09-23T14:19:18.782Z,5.43
2022-09-23T14:21:49.188Z,8.20
2022-09-23T14:24:22.145Z,8.02
2022-09-23T14:26:54.419Z,6.65
2022-09-23T14:29:29.735Z,8.13
2022-09-23T14:32:00.273Z,8.40
2022-09-23T14:35:01.221Z,6.68
2022-09-23T14:37:55.632Z,8.05
2022-09-23T14:40:26.468Z,7.63
2022-09-23T14:43:23.209Z,9.73
2022-09-23T14:45:52.658Z,5.97
2022-09-23T14:48:39.851Z,9.02
2022-09-23T14:51:09.222Z,6.70
2022-09-23T14:53:38.740Z,5.85
2022-09-23T14:56:08.692Z,9.30
2022-09-23T14:58:55.145Z,7.88
2022-09-23T15:01:31.088Z,8.25
2022-09-23T15:04:09.860Z,8.30
2022-09-23T15:06:40.743Z,6.28
2022-09-23T15:09:07.708Z,6.93
2022-09-23T15:11:36.095Z,7.18
2022-09-23T15:14:14.183Z,8.88
2022-09-23T15:16:49.990Z,11.85
2022-09-23T15:19:18.880Z,10.23
2022-09-23T15:21:47.542Z,8.60
2022-09-23T15:24:37.695Z,8.20
2022-09-23T15:27:10.988Z,9.30
2022-09-23T15:29:37.832Z,10.88
2022-09-23T15:32:06.706Z,9.43
2022-09-23T15:34:33.598Z,7.88
2022-09-23T15:37:01.034Z,7.47
2022-09-23T15:39:35.706Z,8.65
2022-09-23T15:42:03.281Z,7.05
2022-09-23T15:44:30.263Z,7.55
2022-09-23T15:46:59.247Z,9.55
2022-09-23T15:49:32.353Z,7.57
2022-09-23T15:51:59.851Z,8.70
2022-09-23T15:54:27.831Z,7.78
2022-09-23T15:56:56.365Z,8.15
2022-09-23T15:59:24.066Z,9.15
2022-09-23T16:01:51.307Z,10.05
2022-09-23T16:04:18.113Z,7.50
2022-09-23T16:06:48.388Z,6.95
2022-09-23T16:09:15.709Z,7.85
2022-09-23T16:11:47.197Z,7.53
2022-09-23T16:14:15.625Z,7.50
2022-09-23T16:16:45.170Z,6.90
2022-09-23T16:19:12.407Z,11.65
2022-09-23T16:21:40.772Z,7.05
2022-09-23T16:24:18.081Z,9.80
2022-09-23T16:26:45.229Z,5.93
2022-09-23T16:29:12.039Z,6.88
2022-09-23T16:31:39.327Z,7.57
2022-09-23T16:34:06.277Z,9.68
2022-09-23T16:36:34.615Z,9.00
2022-09-23T16:39:03.218Z,6.68
2022-09-23T16:41:31.553Z,7.25
2022-09-23T16:44:00.715Z,9.85
2022-09-23T16:46:27.967Z,8.13
2022-09-23T16:48:56.212Z,8.27
2022-09-23T16:51:30.678Z,8.00
2022-09-23T16:53:57.988Z,7.05
2022-09-23T16:56:28.833Z,7.18
2022-09-23T16:58:56.085Z,12.25
2022-09-23T17:01:43.233Z,8.93
2022-09-23T17:04:10.711Z,8.25
2022-09-23T17:06:51.159Z,7.36
2022-09-23T17:09:22.554Z,8.48
2022-09-23T17:11:58.691Z,10.23
2022-09-23T17:14:25.517Z,6.28
2022-09-23T17:16:52.286Z,11.25
2022-09-23T17:19:19.192Z,8.75
2022-09-23T17:21:46.533Z,7.28
2022-09-23T17:24:13.398Z,10.55
2022-09-23T17:26:40.173Z,8.52
2022-09-23T17:29:07.491Z,7.53
2022-09-23T17:31:34.325Z,7.30
2022-09-23T17:34:01.131Z,7.82
2022-09-23T17:36:28.303Z,13.38
2022-09-23T17:38:55.468Z,5.93
2022-09-23T17:41:22.270Z,6.45
2022-09-23T17:43:54.543Z,7.10
2022-09-23T17:46:21.451Z,5.40
2022-09-23T17:48:48.649Z,5.47
2022-09-23T17:51:17.420Z,7.07
2022-09-23T17:53:45.316Z,5.38
2022-09-23T17:56:33.907Z,5.85
2022-09-23T17:59:01.863Z,6.40
2022-09-23T18:01:28.881Z,6.30
2022-09-23T18:03:57.184Z,5.25
2022-09-23T18:06:25.092Z,6.65
2022-09-23T18:08:52.121Z,6.70
2022-09-23T18:11:19.877Z,4.40
2022-09-23T18:14:00.470Z,3.40
2022-09-23T18:16:29.067Z,5.72
2022-09-23T18:18:57.279Z,8.43
2022-09-23T18:21:25.172Z,5.80
2022-09-23T18:23:52.047Z,6.43
2022-09-23T18:26:20.764Z,7.22
2022-09-23T18:28:48.071Z,8.25
2022-09-23T18:31:15.229Z,7.20
2022-09-23T18:33:42.169Z,3.90
2022-09-23T18:36:09.165Z,6.18
2022-09-23T18:38:35.920Z,7.25
2022-09-23T18:41:02.673Z,6.55
2022-09-23T18:43:39.022Z,6.18
2022-09-23T18:46:11.022Z,4.88
2022-09-23T18:48:56.520Z,7.50
2022-09-23T18:51:28.244Z,8.13
2022-09-23T18:53:59.400Z,5.38
2022-09-23T18:56:33.516Z,9.27
2022-09-23T18:59:00.794Z,8.98
2022-09-23T19:01:27.994Z,8.65
2022-09-23T19:03:58.370Z,4.20
2022-09-23T19:06:25.523Z,10.70
2022-09-23T19:08:53.357Z,6.45
2022-09-23T19:11:20.162Z,7.03
2022-09-23T19:13:46.939Z,6.72
2022-09-23T19:16:15.466Z,3.92
2022-09-23T19:18:43.550Z,7.45
2022-09-23T19:21:12.700Z,8.20
2022-09-23T19:23:39.978Z,3.92
2022-09-23T19:26:07.865Z,5.95
2022-09-23T19:28:35.019Z,7.93
2022-09-23T19:31:12.522Z,11.40
2022-09-23T19:33:41.271Z,4.40
2022-09-23T19:36:10.840Z,3.80
2022-09-23T19:38:38.452Z,9.65
2022-09-23T19:41:07.882Z,6.90
2022-09-23T19:43:38.238Z,6.95
2022-09-23T19:46:08.564Z,12.50
2022-09-23T19:48:35.523Z,6.50
2022-09-23T19:51:02.678Z,6.15
2022-09-23T19:53:29.655Z,8.82
2022-09-23T19:55:57.104Z,6.43
2022-09-23T19:58:24.773Z,9.77
2022-09-23T20:00:51.642Z,9.38
2022-09-23T20:03:20.222Z,3.85
2022-09-23T20:05:57.389Z,9.05
2022-09-23T20:08:24.680Z,6.13
2022-09-23T20:10:51.483Z,7.32
2022-09-23T20:13:18.260Z,10.40
2022-09-23T20:15:45.725Z,4.15
2022-09-23T20:18:13.969Z,8.73
2022-09-23T20:20:40.790Z,7.38
2022-09-23T20:23:07.544Z,4.70
2022-09-23T20:25:54.293Z,6.38
2022-09-23T20:28:21.265Z,4.32
2022-09-23T20:30:48.930Z,7.72
2022-09-23T20:33:15.775Z,7.20
2022-09-23T20:35:44.144Z,12.20
2022-09-23T20:38:12.324Z,7.55
2022-09-23T20:40:39.158Z,5.32
2022-09-23T20:43:06.033Z,10.90
2022-09-23T20:45:33.030Z,8.35
2022-09-23T20:48:00.182Z,5.93
2022-09-23T20:50:27.223Z,8.30
2022-09-23T20:52:54.490Z,4.63
2022-09-23T20:55:21.236Z,11.75
2022-09-23T20:57:48.660Z,11.27
2022-09-23T21:00:15.695Z,10.88
2022-09-23T21:02:45.075Z,7.75
2022-09-23T21:05:11.782Z,11.90
2022-09-23T21:07:38.648Z,7.30
2022-09-23T21:10:07.317Z,7.68
2022-09-23T21:12:35.150Z,10.00
2022-09-23T21:15:02.975Z,4.05
2022-09-23T21:17:30.046Z,7.82
2022-09-23T21:19:57.934Z,6.78
2022-09-23T21:22:25.310Z,6.47
2022-09-23T21:27:44.913Z,5.97
2022-09-23T21:30:12.299Z,6.75
2022-09-23T21:32:39.036Z,13.68
2022-09-23T21:35:06.262Z,7.38
2022-09-23T21:37:33.107Z,10.05
2022-09-23T21:40:18.814Z,10.23
2022-09-23T21:42:47.503Z,8.25
2022-09-23T21:45:14.560Z,6.60
2022-09-23T21:47:42.264Z,7.97
2022-09-23T21:50:09.441Z,7.85
2022-09-23T21:52:36.412Z,6.35
2022-09-23T21:55:03.205Z,8.07
2022-09-23T21:57:30.500Z,17.38
2022-09-23T21:59:57.367Z,8.75
2022-09-23T22:02:24.190Z,6.28
2022-09-23T22:04:51.078Z,7.82
2022-09-23T22:07:17.890Z,16.75
2022-09-23T22:09:47.128Z,8.70
2022-09-23T22:12:18.302Z,5.60
2022-09-23T22:14:47.314Z,4.63
2022-09-23T22:17:15.714Z,6.93
2022-09-23T22:19:46.625Z,6.70
2022-09-23T22:22:14.819Z,11.73
2022-09-23T22:24:42.230Z,6.97
2022-09-23T22:27:10.485Z,3.83
2022-09-23T22:29:55.780Z,4.43
2022-09-23T22:32:37.700Z,4.00
2022-09-23T22:35:05.032Z,4.88
2022-09-23T22:37:34.325Z,7.22
2022-09-23T22:40:12.433Z,7.95
2022-09-23T22:42:39.797Z,11.95
2022-09-23T22:45:07.105Z,7.88
2022-09-23T22:47:37.071Z,6.32
2022-09-23T22:50:08.143Z,8.50
2022-09-23T22:52:35.057Z,9.00
2022-09-23T22:55:01.773Z,5.80
2022-09-23T22:57:28.516Z,10.77
2022-09-23T22:59:55.277Z,7.63
2022-09-23T23:02:23.695Z,6.18
2022-09-23T23:04:50.566Z,5.78
2022-09-23T23:07:21.898Z,5.50
2022-09-23T23:09:51.902Z,10.90
2022-09-23T23:12:20.225Z,7.70
2022-09-23T23:14:47.773Z,8.32
2022-09-23T23:17:14.582Z,7.25
2022-09-23T23:19:41.320Z,8.93
2022-09-23T23:22:08.168Z,3.67
2022-09-23T23:24:34.863Z,9.45
2022-09-23T23:27:01.859Z,6.43
2022-09-23T23:29:28.560Z,4.68
2022-09-23T23:31:55.403Z,5.35
2022-09-23T23:34:22.957Z,10.15
2022-09-23T23:36:54.766Z,11.70
2022-09-23T23:39:23.553Z,6.43
2022-09-23T23:41:55.008Z,8.57
2022-09-23T23:44:23.674Z,9.05
2022-09-23T23:46:50.678Z,12.88
2022-09-23T23:49:17.505Z,7.43
2022-09-23T23:51:44.530Z,6.88
2022-09-23T23:54:11.937Z,7.32
2022-09-23T23:56:38.647Z,5.43
2022-09-23T23:59:05.427Z,5.95
